sensor_id;sensor_type;location;lat;lon;timestamp;P1;durP1;ratioP1;P2;durP2;ratioP2
10801;SDS011;5453;50.852;7.102;2023-10-19T00:00:19;7.40;;;4.03;;
10801;SDS011;5453;50.852;7.102;2023-10-19T00:02:54;8.90;;;4.75;;
10801;SDS011;5453;50.852;7.102;2023-10-19T00:05:26;8.45;;;4.25;;
10801;SDS011;5453;50.852;7.102;2023-10-19T00:08:00;9.45;;;4.10;;
10801;SDS011;5453;50.852;7.102;2023-10-19T00:10:36;9.98;;;5.60;;
10801;SDS011;5453;50.852;7.102;2023-10-19T00:13:07;11.13;;;5.60;;
10801;SDS011;5453;50.852;7.102;2023-10-19T00:15:42;8.05;;;4.22;;
10801;SDS011;5453;50.852;7.102;2023-10-19T00:18:20;8.52;;;4.05;;
10801;SDS011;5453;50.852;7.102;2023-10-19T00:20:53;8.95;;;4.47;;
10801;SDS011;5453;50.852;7.102;2023-10-19T00:23:30;8.43;;;4.65;;
10801;SDS011;5453;50.852;7.102;2023-10-19T00:26:02;8.55;;;4.63;;
10801;SDS011;5453;50.852;7.102;2023-10-19T00:28:39;9.35;;;4.28;;
10801;SDS011;5453;50.852;7.102;2023-10-19T00:31:11;9.35;;;4.90;;
10801;SDS011;5453;50.852;7.102;2023-10-19T00:33:48;8.70;;;4.68;;
10801;SDS011;5453;50.852;7.102;2023-10-19T00:36:22;9.95;;;4.40;;
10801;SDS011;5453;50.852;7.102;2023-10-19T00:38:56;7.30;;;4.32;;
10801;SDS011;5453;50.852;7.102;2023-10-19T00:44:05;9.02;;;4.35;;
10801;SDS011;5453;50.852;7.102;2023-10-19T00:46:52;8.40;;;4.38;;
10801;SDS011;5453;50.852;7.102;2023-10-19T00:49:32;8.10;;;3.92;;
10801;SDS011;5453;50.852;7.102;2023-10-19T00:52:05;8.88;;;4.60;;
10801;SDS011;5453;50.852;7.102;2023-10-19T00:54:43;8.68;;;4.75;;
10801;SDS011;5453;50.852;7.102;2023-10-19T00:57:21;10.85;;;4.70;;
10801;SDS011;5453;50.852;7.102;2023-10-19T01:00:04;9.95;;;4.93;;
10801;SDS011;5453;50.852;7.102;2023-10-19T01:02:43;6.88;;;3.72;;
10801;SDS011;5453;50.852;7.102;2023-10-19T01:05:17;7.40;;;3.63;;
10801;SDS011;5453;50.852;7.102;2023-10-19T01:07:52;7.80;;;4.30;;
10801;SDS011;5453;50.852;7.102;2023-10-19T01:13:02;6.47;;;3.30;;
10801;SDS011;5453;50.852;7.102;2023-10-19T01:15:36;8.27;;;4.13;;
10801;SDS011;5453;50.852;7.102;2023-10-19T01:18:09;8.27;;;4.55;;
10801;SDS011;5453;50.852;7.102;2023-10-19T01:20:46;8.65;;;4.43;;
10801;SDS011;5453;50.852;7.102;2023-10-19T01:23:23;8.57;;;4.80;;
10801;SDS011;5453;50.852;7.102;2023-10-19T01:25:58;8.90;;;4.32;;
10801;SDS011;5453;50.852;7.102;2023-10-19T01:28:36;8.70;;;4.38;;
10801;SDS011;5453;50.852;7.102;2023-10-19T01:31:18;9.35;;;5.00;;
10801;SDS011;5453;50.852;7.102;2023-10-19T01:34:04;8.43;;;4.20;;
10801;SDS011;5453;50.852;7.102;2023-10-19T01:36:38;7.63;;;4.43;;
10801;SDS011;5453;50.852;7.102;2023-10-19T01:39:14;9.70;;;4.65;;
10801;SDS011;5453;50.852;7.102;2023-10-19T01:41:45;6.93;;;3.83;;
10801;SDS011;5453;50.852;7.102;2023-10-19T01:44:20;7.60;;;3.75;;
10801;SDS011;5453;50.852;7.102;2023-10-19T01:46:52;7.15;;;3.47;;
10801;SDS011;5453;50.852;7.102;2023-10-19T01:49:26;8.35;;;4.38;;
10801;SDS011;5453;50.852;7.102;2023-10-19T01:51:58;7.18;;;3.60;;
10801;SDS011;5453;50.852;7.102;2023-10-19T01:54:32;9.85;;;4.43;;
10801;SDS011;5453;50.852;7.102;2023-10-19T01:57:08;8.68;;;4.47;;
10801;SDS011;5453;50.852;7.102;2023-10-19T01:59:42;8.35;;;4.38;;
10801;SDS011;5453;50.852;7.102;2023-10-19T02:02:14;9.15;;;4.85;;
10801;SDS011;5453;50.852;7.102;2023-10-19T02:04:47;11.30;;;5.28;;
10801;SDS011;5453;50.852;7.102;2023-10-19T02:07:21;7.82;;;4.68;;
10801;SDS011;5453;50.852;7.102;2023-10-19T02:09:55;8.43;;;4.40;;
10801;SDS011;5453;50.852;7.102;2023-10-19T02:12:27;9.25;;;4.70;;
10801;SDS011;5453;50.852;7.102;2023-10-19T02:14:59;9.40;;;4.20;;
10801;SDS011;5453;50.852;7.102;2023-10-19T02:17:31;8.95;;;5.00;;
10801;SDS011;5453;50.852;7.102;2023-10-19T02:20:07;6.95;;;3.92;;
10801;SDS011;5453;50.852;7.102;2023-10-19T02:22:42;5.72;;;3.15;;
10801;SDS011;5453;50.852;7.102;2023-10-19T02:25:16;7.53;;;3.72;;
10801;SDS011;5453;50.852;7.102;2023-10-19T02:27:48;7.82;;;3.78;;
10801;SDS011;5453;50.852;7.102;2023-10-19T02:30:21;6.72;;;3.47;;
10801;SDS011;5453;50.852;7.102;2023-10-19T02:32:55;6.18;;;3.28;;
10801;SDS011;5453;50.852;7.102;2023-10-19T02:35:27;5.75;;;3.28;;
10801;SDS011;5453;50.852;7.102;2023-10-19T02:37:59;6.60;;;3.50;;
10801;SDS011;5453;50.852;7.102;2023-10-19T02:40:32;6.50;;;3.35;;
10801;SDS011;5453;50.852;7.102;2023-10-19T02:43:08;7.95;;;3.55;;
10801;SDS011;5453;50.852;7.102;2023-10-19T02:45:39;6.28;;;3.72;;
10801;SDS011;5453;50.852;7.102;2023-10-19T02:48:12;6.78;;;3.65;;
10801;SDS011;5453;50.852;7.102;2023-10-19T02:50:44;6.15;;;3.63;;
10801;SDS011;5453;50.852;7.102;2023-10-19T02:53:17;5.63;;;3.10;;
10801;SDS011;5453;50.852;7.102;2023-10-19T02:55:51;5.43;;;3.28;;
10801;SDS011;5453;50.852;7.102;2023-10-19T02:58:23;5.32;;;3.30;;
10801;SDS011;5453;50.852;7.102;2023-10-19T03:00:54;6.88;;;2.85;;
10801;SDS011;5453;50.852;7.102;2023-10-19T03:03:29;5.57;;;3.22;;
10801;SDS011;5453;50.852;7.102;2023-10-19T03:06:04;6.72;;;3.80;;
10801;SDS011;5453;50.852;7.102;2023-10-19T03:08:37;7.75;;;3.40;;
10801;SDS011;5453;50.852;7.102;2023-10-19T03:11:10;4.30;;;2.88;;
10801;SDS011;5453;50.852;7.102;2023-10-19T03:16:21;5.75;;;3.55;;
10801;SDS011;5453;50.852;7.102;2023-10-19T03:18:53;7.57;;;4.63;;
10801;SDS011;5453;50.852;7.102;2023-10-19T03:21:26;6.57;;;4.32;;
10801;SDS011;5453;50.852;7.102;2023-10-19T03:23:58;8.55;;;4.82;;
10801;SDS011;5453;50.852;7.102;2023-10-19T03:26:44;8.38;;;4.30;;
10801;SDS011;5453;50.852;7.102;2023-10-19T03:29:18;4.93;;;3.50;;
10801;SDS011;5453;50.852;7.102;2023-10-19T03:31:56;8.00;;;4.93;;
10801;SDS011;5453;50.852;7.102;2023-10-19T03:34:29;9.05;;;5.00;;
10801;SDS011;5453;50.852;7.102;2023-10-19T03:37:03;8.23;;;4.43;;
10801;SDS011;5453;50.852;7.102;2023-10-19T03:39:38;6.85;;;3.58;;
10801;SDS011;5453;50.852;7.102;2023-10-19T03:42:12;7.00;;;3.88;;
10801;SDS011;5453;50.852;7.102;2023-10-19T03:44:45;6.85;;;3.58;;
10801;SDS011;5453;50.852;7.102;2023-10-19T03:47:23;7.18;;;3.55;;
10801;SDS011;5453;50.852;7.102;2023-10-19T03:50:02;8.23;;;3.90;;
10801;SDS011;5453;50.852;7.102;2023-10-19T03:52:37;5.78;;;3.22;;
10801;SDS011;5453;50.852;7.102;2023-10-19T03:55:10;6.13;;;3.33;;
10801;SDS011;5453;50.852;7.102;2023-10-19T03:57:48;9.07;;;3.80;;
10801;SDS011;5453;50.852;7.102;2023-10-19T04:00:24;7.05;;;3.83;;
10801;SDS011;5453;50.852;7.102;2023-10-19T04:02:58;8.38;;;3.58;;
10801;SDS011;5453;50.852;7.102;2023-10-19T04:05:32;7.20;;;3.70;;
10801;SDS011;5453;50.852;7.102;2023-10-19T04:08:11;6.85;;;4.03;;
10801;SDS011;5453;50.852;7.102;2023-10-19T04:10:44;8.50;;;3.75;;
10801;SDS011;5453;50.852;7.102;2023-10-19T04:13:19;6.80;;;3.55;;
10801;SDS011;5453;50.852;7.102;2023-10-19T04:15:52;7.38;;;3.30;;
10801;SDS011;5453;50.852;7.102;2023-10-19T04:18:27;6.32;;;3.55;;
10801;SDS011;5453;50.852;7.102;2023-10-19T04:21:03;6.60;;;3.15;;
10801;SDS011;5453;50.852;7.102;2023-10-19T04:23:35;7.03;;;3.58;;
10801;SDS011;5453;50.852;7.102;2023-10-19T04:26:08;5.72;;;3.80;;
10801;SDS011;5453;50.852;7.102;2023-10-19T04:28:43;5.30;;;2.78;;
10801;SDS011;5453;50.852;7.102;2023-10-19T04:31:19;6.07;;;3.22;;
10801;SDS011;5453;50.852;7.102;2023-10-19T04:33:54;5.25;;;3.13;;
10801;SDS011;5453;50.852;7.102;2023-10-19T04:36:26;4.78;;;2.60;;
10801;SDS011;5453;50.852;7.102;2023-10-19T04:38:58;6.30;;;3.10;;
10801;SDS011;5453;50.852;7.102;2023-10-19T04:41:31;5.50;;;2.97;;
10801;SDS011;5453;50.852;7.102;2023-10-19T04:44:05;5.65;;;3.00;;
10801;SDS011;5453;50.852;7.102;2023-10-19T04:46:38;8.07;;;4.15;;
10801;SDS011;5453;50.852;7.102;2023-10-19T04:49:10;5.88;;;3.15;;
10801;SDS011;5453;50.852;7.102;2023-10-19T04:51:43;5.25;;;2.58;;
10801;SDS011;5453;50.852;7.102;2023-10-19T04:54:15;4.18;;;2.50;;
10801;SDS011;5453;50.852;7.102;2023-10-19T04:56:47;6.07;;;3.08;;
10801;SDS011;5453;50.852;7.102;2023-10-19T04:59:22;4.93;;;2.90;;
10801;SDS011;5453;50.852;7.102;2023-10-19T05:01:54;5.13;;;2.50;;
10801;SDS011;5453;50.852;7.102;2023-10-19T05:04:26;6.80;;;3.20;;
10801;SDS011;5453;50.852;7.102;2023-10-19T05:06:59;6.35;;;3.17;;
10801;SDS011;5453;50.852;7.102;2023-10-19T05:09:33;6.22;;;4.22;;
10801;SDS011;5453;50.852;7.102;2023-10-19T05:12:08;6.63;;;3.03;;
10801;SDS011;5453;50.852;7.102;2023-10-19T05:14:43;6.18;;;3.00;;
10801;SDS011;5453;50.852;7.102;2023-10-19T05:17:16;4.90;;;2.97;;
10801;SDS011;5453;50.852;7.102;2023-10-19T05:19:51;5.53;;;2.95;;
10801;SDS011;5453;50.852;7.102;2023-10-19T05:22:23;11.23;;;4.05;;
10801;SDS011;5453;50.852;7.102;2023-10-19T05:24:59;7.78;;;3.75;;
10801;SDS011;5453;50.852;7.102;2023-10-19T05:27:32;8.18;;;4.10;;
10801;SDS011;5453;50.852;7.102;2023-10-19T05:30:07;5.82;;;3.10;;
10801;SDS011;5453;50.852;7.102;2023-10-19T05:32:44;8.80;;;4.03;;
10801;SDS011;5453;50.852;7.102;2023-10-19T05:35:16;5.82;;;2.92;;
10801;SDS011;5453;50.852;7.102;2023-10-19T05:37:53;7.28;;;3.60;;
10801;SDS011;5453;50.852;7.102;2023-10-19T05:40:26;5.35;;;3.03;;
10801;SDS011;5453;50.852;7.102;2023-10-19T05:43:00;5.45;;;2.92;;
10801;SDS011;5453;50.852;7.102;2023-10-19T05:45:34;8.32;;;3.88;;
10801;SDS011;5453;50.852;7.102;2023-10-19T05:48:07;6.40;;;3.28;;
10801;SDS011;5453;50.852;7.102;2023-10-19T05:50:39;8.00;;;3.90;;
10801;SDS011;5453;50.852;7.102;2023-10-19T05:53:12;8.13;;;3.70;;
10801;SDS011;5453;50.852;7.102;2023-10-19T05:55:48;9.40;;;4.38;;
10801;SDS011;5453;50.852;7.102;2023-10-19T05:58:20;7.50;;;3.58;;
10801;SDS011;5453;50.852;7.102;2023-10-19T06:00:54;8.15;;;4.53;;
10801;SDS011;5453;50.852;7.102;2023-10-19T06:03:30;10.52;;;4.38;;
10801;SDS011;5453;50.852;7.102;2023-10-19T06:06:02;11.57;;;5.10;;
10801;SDS011;5453;50.852;7.102;2023-10-19T06:08:39;10.75;;;4.93;;
10801;SDS011;5453;50.852;7.102;2023-10-19T06:11:12;8.02;;;4.03;;
10801;SDS011;5453;50.852;7.102;2023-10-19T06:13:44;9.55;;;4.35;;
10801;SDS011;5453;50.852;7.102;2023-10-19T06:16:19;7.47;;;3.92;;
10801;SDS011;5453;50.852;7.102;2023-10-19T06:18:51;12.85;;;5.13;;
10801;SDS011;5453;50.852;7.102;2023-10-19T06:21:23;9.57;;;4.82;;
10801;SDS011;5453;50.852;7.102;2023-10-19T06:23:56;9.40;;;4.40;;
10801;SDS011;5453;50.852;7.102;2023-10-19T06:26:29;12.35;;;5.22;;
10801;SDS011;5453;50.852;7.102;2023-10-19T06:29:01;12.90;;;5.35;;
10801;SDS011;5453;50.852;7.102;2023-10-19T06:31:35;10.45;;;4.70;;
10801;SDS011;5453;50.852;7.102;2023-10-19T06:34:08;10.25;;;4.60;;
10801;SDS011;5453;50.852;7.102;2023-10-19T06:36:44;8.38;;;3.72;;
10801;SDS011;5453;50.852;7.102;2023-10-19T06:39:16;10.63;;;5.25;;
10801;SDS011;5453;50.852;7.102;2023-10-19T06:41:51;9.48;;;4.75;;
10801;SDS011;5453;50.852;7.102;2023-10-19T06:44:23;7.65;;;4.18;;
10801;SDS011;5453;50.852;7.102;2023-10-19T06:46:57;10.52;;;5.07;;
10801;SDS011;5453;50.852;7.102;2023-10-19T06:49:29;9.40;;;4.47;;
10801;SDS011;5453;50.852;7.102;2023-10-19T06:52:02;9.38;;;4.63;;
10801;SDS011;5453;50.852;7.102;2023-10-19T06:54:36;7.20;;;3.65;;
10801;SDS011;5453;50.852;7.102;2023-10-19T06:57:09;5.50;;;3.10;;
10801;SDS011;5453;50.852;7.102;2023-10-19T06:59:42;8.25;;;3.58;;
10801;SDS011;5453;50.852;7.102;2023-10-19T07:02:16;6.80;;;3.67;;
10801;SDS011;5453;50.852;7.102;2023-10-19T07:04:53;8.25;;;3.13;;
10801;SDS011;5453;50.852;7.102;2023-10-19T07:07:26;8.75;;;4.35;;
10801;SDS011;5453;50.852;7.102;2023-10-19T07:09:58;8.00;;;4.03;;
10801;SDS011;5453;50.852;7.102;2023-10-19T07:12:36;7.75;;;3.67;;
10801;SDS011;5453;50.852;7.102;2023-10-19T07:15:09;8.40;;;4.05;;
10801;SDS011;5453;50.852;7.102;2023-10-19T07:17:46;6.40;;;3.30;;
10801;SDS011;5453;50.852;7.102;2023-10-19T07:20:19;6.03;;;3.13;;
10801;SDS011;5453;50.852;7.102;2023-10-19T07:22:59;7.22;;;3.30;;
10801;SDS011;5453;50.852;7.102;2023-10-19T07:25:37;7.60;;;3.20;;
10801;SDS011;5453;50.852;7.102;2023-10-19T07:28:13;7.72;;;3.35;;
10801;SDS011;5453;50.852;7.102;2023-10-19T07:30:50;7.97;;;3.63;;
10801;SDS011;5453;50.852;7.102;2023-10-19T07:33:23;7.90;;;3.90;;
10801;SDS011;5453;50.852;7.102;2023-10-19T07:35:56;11.32;;;3.63;;
10801;SDS011;5453;50.852;7.102;2023-10-19T07:38:30;7.60;;;3.88;;
10801;SDS011;5453;50.852;7.102;2023-10-19T07:41:05;7.18;;;3.58;;
10801;SDS011;5453;50.852;7.102;2023-10-19T07:43:37;7.88;;;3.78;;
10801;SDS011;5453;50.852;7.102;2023-10-19T07:46:10;7.53;;;3.13;;
10801;SDS011;5453;50.852;7.102;2023-10-19T07:48:44;9.60;;;4.70;;
10801;SDS011;5453;50.852;7.102;2023-10-19T07:51:16;6.90;;;3.50;;
10801;SDS011;5453;50.852;7.102;2023-10-19T07:53:49;7.75;;;4.03;;
10801;SDS011;5453;50.852;7.102;2023-10-19T07:56:21;7.78;;;3.75;;
10801;SDS011;5453;50.852;7.102;2023-10-19T07:58:58;8.07;;;4.50;;
10801;SDS011;5453;50.852;7.102;2023-10-19T08:01:30;6.88;;;3.35;;
10801;SDS011;5453;50.852;7.102;2023-10-19T08:04:04;6.03;;;3.00;;
10801;SDS011;5453;50.852;7.102;2023-10-19T08:06:40;9.57;;;3.63;;
10801;SDS011;5453;50.852;7.102;2023-10-19T08:09:12;7.28;;;3.00;;
10801;SDS011;5453;50.852;7.102;2023-10-19T08:11:52;6.03;;;3.33;;
10801;SDS011;5453;50.852;7.102;2023-10-19T08:14:26;5.70;;;3.00;;
10801;SDS011;5453;50.852;7.102;2023-10-19T08:17:00;5.75;;;2.85;;
10801;SDS011;5453;50.852;7.102;2023-10-19T08:19:35;4.80;;;2.63;;
10801;SDS011;5453;50.852;7.102;2023-10-19T08:22:07;4.50;;;2.92;;
10801;SDS011;5453;50.852;7.102;2023-10-19T08:24:39;4.80;;;2.50;;
10801;SDS011;5453;50.852;7.102;2023-10-19T08:27:13;5.90;;;2.50;;
10801;SDS011;5453;50.852;7.102;2023-10-19T08:29:47;4.57;;;2.42;;
10801;SDS011;5453;50.852;7.102;2023-10-19T08:32:20;3.28;;;2.22;;
10801;SDS011;5453;50.852;7.102;2023-10-19T08:34:54;21.73;;;3.22;;
10801;SDS011;5453;50.852;7.102;2023-10-19T08:37:26;5.72;;;2.72;;
10801;SDS011;5453;50.852;7.102;2023-10-19T08:39:59;5.70;;;2.17;;
10801;SDS011;5453;50.852;7.102;2023-10-19T08:42:34;4.55;;;2.17;;
10801;SDS011;5453;50.852;7.102;2023-10-19T08:45:07;3.80;;;1.95;;
10801;SDS011;5453;50.852;7.102;2023-10-19T08:47:43;5.18;;;2.22;;
10801;SDS011;5453;50.852;7.102;2023-10-19T08:50:25;5.07;;;2.33;;
10801;SDS011;5453;50.852;7.102;2023-10-19T08:53:04;3.38;;;2.03;;
10801;SDS011;5453;50.852;7.102;2023-10-19T08:55:38;2.17;;;1.70;;
10801;SDS011;5453;50.852;7.102;2023-10-19T08:58:11;3.42;;;1.63;;
10801;SDS011;5453;50.852;7.102;2023-10-19T09:00:48;3.75;;;1.60;;
10801;SDS011;5453;50.852;7.102;2023-10-19T09:03:24;4.40;;;1.67;;
10801;SDS011;5453;50.852;7.102;2023-10-19T09:05:59;4.28;;;1.48;;
10801;SDS011;5453;50.852;7.102;2023-10-19T09:08:33;4.60;;;1.63;;
10801;SDS011;5453;50.852;7.102;2023-10-19T09:11:11;1.83;;;1.20;;
10801;SDS011;5453;50.852;7.102;2023-10-19T09:13:44;2.35;;;0.95;;
10801;SDS011;5453;50.852;7.102;2023-10-19T09:16:18;4.28;;;1.40;;
10801;SDS011;5453;50.852;7.102;2023-10-19T09:18:55;2.92;;;1.23;;
10801;SDS011;5453;50.852;7.102;2023-10-19T09:21:30;3.53;;;1.27;;
10801;SDS011;5453;50.852;7.102;2023-10-19T09:24:03;3.47;;;1.30;;
10801;SDS011;5453;50.852;7.102;2023-10-19T09:26:36;2.45;;;1.20;;
10801;SDS011;5453;50.852;7.102;2023-10-19T09:29:09;2.92;;;1.30;;
10801;SDS011;5453;50.852;7.102;2023-10-19T09:31:49;6.30;;;1.52;;
10801;SDS011;5453;50.852;7.102;2023-10-19T09:34:23;4.40;;;1.40;;
10801;SDS011;5453;50.852;7.102;2023-10-19T09:37:03;2.45;;;1.23;;
10801;SDS011;5453;50.852;7.102;2023-10-19T09:39:36;3.63;;;1.52;;
10801;SDS011;5453;50.852;7.102;2023-10-19T09:42:10;3.47;;;1.27;;
10801;SDS011;5453;50.852;7.102;2023-10-19T09:44:47;3.22;;;1.30;;
10801;SDS011;5453;50.852;7.102;2023-10-19T09:47:27;3.67;;;1.30;;
10801;SDS011;5453;50.852;7.102;2023-10-19T09:50:06;4.28;;;1.27;;
10801;SDS011;5453;50.852;7.102;2023-10-19T09:52:42;3.15;;;1.30;;
10801;SDS011;5453;50.852;7.102;2023-10-19T09:55:17;3.78;;;1.30;;
10801;SDS011;5453;50.852;7.102;2023-10-19T09:57:58;4.47;;;1.40;;
10801;SDS011;5453;50.852;7.102;2023-10-19T10:00:38;2.65;;;1.13;;
10801;SDS011;5453;50.852;7.102;2023-10-19T10:06:27;4.15;;;1.05;;
10801;SDS011;5453;50.852;7.102;2023-10-19T10:09:02;2.65;;;1.08;;
10801;SDS011;5453;50.852;7.102;2023-10-19T10:16:59;3.67;;;1.30;;
10801;SDS011;5453;50.852;7.102;2023-10-19T10:19:32;2.83;;;1.23;;
10801;SDS011;5453;50.852;7.102;2023-10-19T10:22:07;2.75;;;1.10;;
10801;SDS011;5453;50.852;7.102;2023-10-19T10:24:46;3.17;;;1.13;;
10801;SDS011;5453;50.852;7.102;2023-10-19T10:27:19;2.65;;;1.00;;
10801;SDS011;5453;50.852;7.102;2023-10-19T10:29:55;2.08;;;0.93;;
10801;SDS011;5453;50.852;7.102;2023-10-19T10:32:42;3.90;;;1.20;;
10801;SDS011;5453;50.852;7.102;2023-10-19T10:38:26;3.80;;;1.08;;
10801;SDS011;5453;50.852;7.102;2023-10-19T10:41:08;4.57;;;1.40;;
10801;SDS011;5453;50.852;7.102;2023-10-19T10:46:24;4.80;;;1.45;;
10801;SDS011;5453;50.852;7.102;2023-10-19T10:48:59;2.72;;;1.10;;
10801;SDS011;5453;50.852;7.102;2023-10-19T10:51:33;2.97;;;1.10;;
10801;SDS011;5453;50.852;7.102;2023-10-19T10:54:05;4.05;;;1.30;;
10801;SDS011;5453;50.852;7.102;2023-10-19T10:56:40;3.13;;;1.05;;
10801;SDS011;5453;50.852;7.102;2023-10-19T10:59:14;3.17;;;1.10;;
10801;SDS011;5453;50.852;7.102;2023-10-19T11:01:46;3.20;;;1.17;;
10801;SDS011;5453;50.852;7.102;2023-10-19T11:04:19;4.93;;;1.58;;
10801;SDS011;5453;50.852;7.102;2023-10-19T11:06:52;24.35;;;2.65;;
10801;SDS011;5453;50.852;7.102;2023-10-19T11:09:26;3.05;;;1.10;;
10801;SDS011;5453;50.852;7.102;2023-10-19T11:12:00;5.60;;;1.27;;
10801;SDS011;5453;50.852;7.102;2023-10-19T11:17:43;3.40;;;1.00;;
10801;SDS011;5453;50.852;7.102;2023-10-19T11:20:22;3.35;;;1.40;;
10801;SDS011;5453;50.852;7.102;2023-10-19T11:22:56;3.15;;;1.33;;
10801;SDS011;5453;50.852;7.102;2023-10-19T11:25:30;2.85;;;1.00;;
10801;SDS011;5453;50.852;7.102;2023-10-19T11:28:07;3.60;;;1.52;;
10801;SDS011;5453;50.852;7.102;2023-10-19T11:30:49;3.35;;;1.25;;
10801;SDS011;5453;50.852;7.102;2023-10-19T11:33:21;3.83;;;1.20;;
10801;SDS011;5453;50.852;7.102;2023-10-19T11:38:28;3.85;;;1.52;;
10801;SDS011;5453;50.852;7.102;2023-10-19T11:41:00;5.15;;;1.40;;
10801;SDS011;5453;50.852;7.102;2023-10-19T11:43:35;3.63;;;1.25;;
10801;SDS011;5453;50.852;7.102;2023-10-19T11:46:07;4.55;;;1.20;;
10801;SDS011;5453;50.852;7.102;2023-10-19T11:48:41;4.00;;;1.00;;
10801;SDS011;5453;50.852;7.102;2023-10-19T11:51:17;4.07;;;1.48;;
10801;SDS011;5453;50.852;7.102;2023-10-19T11:53:49;4.55;;;1.25;;
10801;SDS011;5453;50.852;7.102;2023-10-19T11:56:22;2.45;;;1.00;;
10801;SDS011;5453;50.852;7.102;2023-10-19T11:58:56;4.95;;;1.30;;
10801;SDS011;5453;50.852;7.102;2023-10-19T12:01:29;4.57;;;1.05;;
10801;SDS011;5453;50.852;7.102;2023-10-19T12:04:01;4.82;;;1.20;;
10801;SDS011;5453;50.852;7.102;2023-10-19T12:06:35;3.72;;;1.23;;
10801;SDS011;5453;50.852;7.102;2023-10-19T12:09:08;2.97;;;0.90;;
10801;SDS011;5453;50.852;7.102;2023-10-19T12:11:45;4.10;;;1.00;;
10801;SDS011;5453;50.852;7.102;2023-10-19T12:14:19;1.95;;;1.10;;
10801;SDS011;5453;50.852;7.102;2023-10-19T12:16:53;5.30;;;1.27;;
10801;SDS011;5453;50.852;7.102;2023-10-19T12:19:29;2.65;;;0.93;;
10801;SDS011;5453;50.852;7.102;2023-10-19T12:22:02;7.13;;;2.42;;
10801;SDS011;5453;50.852;7.102;2023-10-19T12:24:34;6.07;;;2.42;;
10801;SDS011;5453;50.852;7.102;2023-10-19T12:27:06;10.85;;;4.20;;
10801;SDS011;5453;50.852;7.102;2023-10-19T12:29:40;9.00;;;3.70;;
10801;SDS011;5453;50.852;7.102;2023-10-19T12:32:14;10.00;;;3.58;;
10801;SDS011;5453;50.852;7.102;2023-10-19T12:34:46;7.78;;;3.90;;
10801;SDS011;5453;50.852;7.102;2023-10-19T12:37:23;16.50;;;8.23;;
10801;SDS011;5453;50.852;7.102;2023-10-19T12:39:55;23.52;;;10.27;;
10801;SDS011;5453;50.852;7.102;2023-10-19T12:42:28;15.60;;;6.88;;
10801;SDS011;5453;50.852;7.102;2023-10-19T12:45:02;7.22;;;3.78;;
10801;SDS011;5453;50.852;7.102;2023-10-19T12:47:35;4.28;;;1.85;;
10801;SDS011;5453;50.852;7.102;2023-10-19T12:50:08;4.88;;;1.50;;
10801;SDS011;5453;50.852;7.102;2023-10-19T12:52:43;4.28;;;1.52;;
10801;SDS011;5453;50.852;7.102;2023-10-19T12:55:15;4.93;;;1.58;;
10801;SDS011;5453;50.852;7.102;2023-10-19T12:57:48;5.43;;;1.50;;
10801;SDS011;5453;50.852;7.102;2023-10-19T13:00:24;3.40;;;1.50;;
10801;SDS011;5453;50.852;7.102;2023-10-19T13:02:59;3.33;;;1.50;;
10801;SDS011;5453;50.852;7.102;2023-10-19T13:05:32;4.15;;;1.40;;
10801;SDS011;5453;50.852;7.102;2023-10-19T13:08:05;4.07;;;1.33;;
10801;SDS011;5453;50.852;7.102;2023-10-19T13:10:39;3.78;;;1.40;;
10801;SDS011;5453;50.852;7.102;2023-10-19T13:15:48;3.65;;;1.40;;
10801;SDS011;5453;50.852;7.102;2023-10-19T13:18:20;3.65;;;1.35;;
10801;SDS011;5453;50.852;7.102;2023-10-19T13:20:58;4.50;;;1.30;;
10801;SDS011;5453;50.852;7.102;2023-10-19T13:23:34;4.15;;;1.30;;
10801;SDS011;5453;50.852;7.102;2023-10-19T13:26:06;2.80;;;1.40;;
10801;SDS011;5453;50.852;7.102;2023-10-19T13:28:48;2.80;;;1.33;;
10801;SDS011;5453;50.852;7.102;2023-10-19T13:36:30;2.95;;;1.20;;
10801;SDS011;5453;50.852;7.102;2023-10-19T13:39:02;2.20;;;1.27;;
10801;SDS011;5453;50.852;7.102;2023-10-19T13:41:36;3.90;;;1.60;;
10801;SDS011;5453;50.852;7.102;2023-10-19T13:44:08;2.60;;;1.35;;
10801;SDS011;5453;50.852;7.102;2023-10-19T13:46:43;2.47;;;1.40;;
10801;SDS011;5453;50.852;7.102;2023-10-19T13:49:16;3.13;;;1.52;;
10801;SDS011;5453;50.852;7.102;2023-10-19T13:51:49;3.47;;;1.38;;
10801;SDS011;5453;50.852;7.102;2023-10-19T13:54:22;2.83;;;1.48;;
10801;SDS011;5453;50.852;7.102;2023-10-19T13:56:54;2.42;;;1.30;;
10801;SDS011;5453;50.852;7.102;2023-10-19T13:59:29;3.78;;;1.42;;
10801;SDS011;5453;50.852;7.102;2023-10-19T14:02:05;3.97;;;1.50;;
10801;SDS011;5453;50.852;7.102;2023-10-19T14:04:38;3.33;;;1.35;;
10801;SDS011;5453;50.852;7.102;2023-10-19T14:07:10;4.30;;;1.52;;
10801;SDS011;5453;50.852;7.102;2023-10-19T14:09:43;3.92;;;1.80;;
10801;SDS011;5453;50.852;7.102;2023-10-19T14:12:16;5.68;;;2.00;;
10801;SDS011;5453;50.852;7.102;2023-10-19T14:14:48;6.68;;;1.58;;
10801;SDS011;5453;50.852;7.102;2023-10-19T14:17:22;3.15;;;1.58;;
10801;SDS011;5453;50.852;7.102;2023-10-19T14:19:55;3.38;;;1.73;;
10801;SDS011;5453;50.852;7.102;2023-10-19T14:22:28;4.13;;;1.70;;
10801;SDS011;5453;50.852;7.102;2023-10-19T14:25:05;5.07;;;2.03;;
10801;SDS011;5453;50.852;7.102;2023-10-19T14:27:45;3.97;;;1.55;;
10801;SDS011;5453;50.852;7.102;2023-10-19T14:30:21;4.57;;;1.45;;
10801;SDS011;5453;50.852;7.102;2023-10-19T14:32:56;5.00;;;1.95;;
10801;SDS011;5453;50.852;7.102;2023-10-19T14:35:28;6.63;;;2.63;;
10801;SDS011;5453;50.852;7.102;2023-10-19T14:38:01;5.93;;;2.35;;
10801;SDS011;5453;50.852;7.102;2023-10-19T14:40:33;6.00;;;2.13;;
10801;SDS011;5453;50.852;7.102;2023-10-19T14:43:06;4.28;;;2.03;;
10801;SDS011;5453;50.852;7.102;2023-10-19T14:45:41;4.82;;;2.00;;
10801;SDS011;5453;50.852;7.102;2023-10-19T14:48:15;4.68;;;2.13;;
10801;SDS011;5453;50.852;7.102;2023-10-19T14:50:49;8.57;;;2.40;;
10801;SDS011;5453;50.852;7.102;2023-10-19T14:53:27;5.10;;;2.13;;
10801;SDS011;5453;50.852;7.102;2023-10-19T14:56:00;7.68;;;2.50;;
10801;SDS011;5453;50.852;7.102;2023-10-19T14:58:32;5.55;;;2.42;;
10801;SDS011;5453;50.852;7.102;2023-10-19T15:01:04;4.78;;;2.15;;
10801;SDS011;5453;50.852;7.102;2023-10-19T15:03:46;4.65;;;2.20;;
10801;SDS011;5453;50.852;7.102;2023-10-19T15:06:19;4.63;;;1.95;;
10801;SDS011;5453;50.852;7.102;2023-10-19T15:08:51;5.18;;;2.38;;
10801;SDS011;5453;50.852;7.102;2023-10-19T15:11:27;3.85;;;2.08;;
10801;SDS011;5453;50.852;7.102;2023-10-19T15:13:59;6.68;;;2.30;;
10801;SDS011;5453;50.852;7.102;2023-10-19T15:16:32;5.80;;;2.80;;
10801;SDS011;5453;50.852;7.102;2023-10-19T15:19:05;5.25;;;2.47;;
10801;SDS011;5453;50.852;7.102;2023-10-19T15:21:41;5.03;;;2.85;;
10801;SDS011;5453;50.852;7.102;2023-10-19T15:24:14;6.97;;;2.78;;
10801;SDS011;5453;50.852;7.102;2023-10-19T15:26:46;4.90;;;2.33;;
10801;SDS011;5453;50.852;7.102;2023-10-19T15:29:19;4.55;;;2.28;;
10801;SDS011;5453;50.852;7.102;2023-10-19T15:31:54;7.68;;;2.92;;
10801;SDS011;5453;50.852;7.102;2023-10-19T15:34:28;6.43;;;2.40;;
10801;SDS011;5453;50.852;7.102;2023-10-19T15:37:04;5.90;;;2.70;;
10801;SDS011;5453;50.852;7.102;2023-10-19T15:39:39;4.03;;;2.38;;
10801;SDS011;5453;50.852;7.102;2023-10-19T15:42:12;6.07;;;3.00;;
10801;SDS011;5453;50.852;7.102;2023-10-19T15:44:45;6.80;;;2.33;;
10801;SDS011;5453;50.852;7.102;2023-10-19T15:47:17;3.47;;;2.38;;
10801;SDS011;5453;50.852;7.102;2023-10-19T15:49:54;6.20;;;2.75;;
10801;SDS011;5453;50.852;7.102;2023-10-19T15:52:27;4.60;;;2.67;;
10801;SDS011;5453;50.852;7.102;2023-10-19T15:55:02;7.25;;;2.83;;
10801;SDS011;5453;50.852;7.102;2023-10-19T15:57:39;4.95;;;2.60;;
10801;SDS011;5453;50.852;7.102;2023-10-19T16:00:12;4.57;;;2.60;;
10801;SDS011;5453;50.852;7.102;2023-10-19T16:02:45;5.40;;;3.00;;
10801;SDS011;5453;50.852;7.102;2023-10-19T16:05:19;6.38;;;2.65;;
10801;SDS011;5453;50.852;7.102;2023-10-19T16:07:55;5.63;;;3.13;;
10801;SDS011;5453;50.852;7.102;2023-10-19T16:10:27;6.25;;;2.90;;
10801;SDS011;5453;50.852;7.102;2023-10-19T16:12:59;5.60;;;2.65;;
10801;SDS011;5453;50.852;7.102;2023-10-19T16:15:32;5.10;;;2.80;;
10801;SDS011;5453;50.852;7.102;2023-10-19T16:18:06;5.38;;;2.83;;